This is the latest recevied weather packets stored in our database for station/object KE7TOP-15. If no packets are shown the sender has not sent any weather packets the latest 10 day(s).
| Time | Temp. | Humidity | Pressure | Rain* | Wind** | Luminosity | Snow |
|---|---|---|---|---|---|---|---|
| 1777904418 | 7.78° C | 78% | 1012.5 hPa | 0 mm | - | 37 W/m² | - |
| 1777900821 | 7.22° C | 78% | 1012.1 hPa | 0 mm | - | 11 W/m² | - |
| 1777893064 | 8.89° C | 70% | 1012.9 hPa | 0 mm | - | 0 W/m² | - |
| 1777891224 | 10° C | 61% | 1012.9 hPa | 0 mm | - | 0 W/m² | - |
| 1777890623 | 9.44° C | 63% | 1012.8 hPa | 0 mm | - | 0 W/m² | - |
| 1777890021 | 9.44° C | 63% | 1012.9 hPa | 0 mm | - | 0 W/m² | - |
| 1777887023 | 7.22° C | 79% | 1013.1 hPa | 0 mm | - | 0 W/m² | - |
| 1777881036 | 6.67° C | 80% | 1013.4 hPa | 0 mm | - | 0 W/m² | - |
| 1777877424 | 7.22° C | 79% | 1013.3 hPa | 0 mm | - | 0 W/m² | - |
| 1777875620 | 7.78° C | 75% | 1013.3 hPa | 0 mm | - | 0 W/m² | - |
| 1777874416 | 7.78° C | 74% | 1013.3 hPa | 0 mm | - | 0 W/m² | - |
| 1777871417 | 8.89° C | 73% | 1013.6 hPa | 0 mm | - | 0 W/m² | - |
| 1777867818 | 9.44° C | 69% | 1014 hPa | 0 mm | - | 0 W/m² | - |
| 1777866624 | 10° C | 63% | 1013.7 hPa | 0 mm | - | 0 W/m² | - |
| 1777859420 | 11.11° C | 57% | 1013.4 hPa | 0 mm | - | 49 W/m² | - |
| 1777854622 | 11.11° C | 58% | 1014.1 hPa | 0 mm | - | 80 W/m² | - |
| 1777854021 | 11.11° C | 58% | 1014.4 hPa | 0 mm | - | 122 W/m² | - |
| 1777850419 | 10.56° C | 62% | 1014 hPa | 0 mm | - | 143 W/m² | - |
| 1777842617 | 20.56° C | 23% | 1011.7 hPa | 0 mm | - | 252 W/m² | - |
| 1777841425 | 21.11° C | 24% | 1011.9 hPa | 0 mm | - | 422 W/m² | - |
| 1777838419 | 20.56° C | 25% | 1012.8 hPa | 0 mm | - | 704 W/m² | - |
| 1777837818 | 20.56° C | 28% | 1012.9 hPa | 0 mm | - | 646 W/m² | - |
| 1777836617 | 20.56° C | 27% | 1013.3 hPa | 0 mm | - | 329 W/m² | - |
| 1777835423 | 20.56° C | 29% | 1013.5 hPa | 0 mm | - | 797 W/m² | - |
| 1777831243 | 17.78° C | 36% | 1014.2 hPa | 0 mm | - | 478 W/m² | - |
* Rain latest hour (hover to see other rain measurements)
** Current wind speed in m/s (hover to see current wind gust speed)